Time;durP1;ratioP1;P1;durP2;ratioP2;P2;SDS_P1;SDS_P2;PMS_P1;PMS_P2;Temp;Humidity;BMP_temperature;BMP_pressure;BME280_temperature;BME280_humidity;BME280_pressure;Samples;Min_cycle;Max_cycle;Signal;HPM_P1;HPM_P2
2023/06/21 00:01:04;;;;;;;16.50;14.80;;;;;;;21.68;100.00;99895.92;180197;1260;43539;-61
2023/06/21 00:05:16;;;;;;;24.50;16.90;;;;;;;21.62;100.00;99893.31;180173;1260;58846;-59
2023/06/21 00:09:19;;;;;;;19.90;15.30;;;;;;;21.54;100.00;99889.64;180312;1260;43921;-60
2023/06/21 00:13:25;;;;;;;19.00;15.20;;;;;;;21.45;100.00;99890.14;180378;1260;44626;-59
2023/06/21 00:17:28;;;;;;;22.90;17.40;;;;;;;21.42;100.00;99890.26;180295;1260;43771;-61
2023/06/21 00:21:40;;;;;;;22.90;16.80;;;;;;;21.40;100.00;99883.22;180352;1260;44638;-59
2023/06/21 00:25:43;;;;;;;24.30;16.30;;;;;;;21.35;100.00;99878.94;180504;1260;58413;-59
2023/06/21 00:29:46;;;;;;;19.70;17.10;;;;;;;21.27;100.00;99878.81;180559;1259;43720;-61
2023/06/21 00:33:49;;;;;;;23.00;18.50;;;;;;;21.21;100.00;99879.78;180462;1259;43769;-59
2023/06/21 00:37:55;;;;;;;20.90;18.50;;;;;;;21.18;100.00;99875.17;180369;1260;44109;-60
2023/06/21 00:41:59;;;;;;;22.40;17.30;;;;;;;21.20;100.00;99871.63;180322;1260;46009;-61
2023/06/21 00:46:04;;;;;;;21.00;17.30;;;;;;;21.22;100.00;99874.10;180271;1260;59512;-60
2023/06/21 00:50:09;;;;;;;19.70;17.20;;;;;;;21.20;100.00;99875.05;180203;1260;46050;-58
2023/06/21 00:54:16;;;;;;;26.00;20.70;;;;;;;21.14;100.00;99878.50;180152;1260;45040;-59
2023/06/21 00:58:22;;;;;;;31.30;23.00;;;;;;;21.12;100.00;99878.33;180612;1260;46063;-62
2023/06/21 01:02:26;;;;;;;25.10;20.20;;;;;;;21.10;100.00;99883.45;180745;1260;45263;-64
2023/06/21 01:06:45;;;;;;;51.80;43.60;;;;;;;21.08;100.00;99879.95;180622;1260;57904;-58
2023/06/21 01:11:24;;;;;;;24.00;19.60;;;;;;;21.06;100.00;99871.58;180321;1260;43617;-59
2023/06/21 01:20:13;;;;;;;20.20;17.00;;;;;;;20.97;100.00;99851.27;180333;1260;43609;-58
2023/06/21 01:25:17;;;;;;;32.90;19.80;;;;;;;20.89;100.00;99855.11;180326;1263;44898;-61
2023/06/21 01:29:28;;;;;;;20.00;16.00;;;;;;;20.78;100.00;99852.65;179491;1267;58989;-61
2023/06/21 01:33:34;;;;;;;33.20;19.90;;;;;;;20.73;100.00;99862.98;179677;1267;43645;-62
2023/06/21 01:37:37;;;;;;;25.40;22.40;;;;;;;20.70;100.00;99859.48;179451;1266;180043;-64
2023/06/21 01:41:40;;;;;;;26.00;21.40;;;;;;;20.72;100.00;99856.95;179825;1266;45068;-59
2023/06/21 01:46:04;;;;;;;23.40;19.30;;;;;;;20.72;100.00;99855.63;179750;1267;44836;-59
2023/06/21 01:50:08;;;;;;;20.60;18.00;;;;;;;20.74;100.00;99851.59;179531;1268;57946;-59
2023/06/21 01:54:15;;;;;;;34.40;20.90;;;;;;;20.77;100.00;99857.91;179678;1266;44626;-60
2023/06/21 01:58:23;;;;;;;24.70;19.10;;;;;;;20.77;100.00;99854.05;179606;1266;45894;-59
2023/06/21 02:02:27;;;;;;;25.10;19.50;;;;;;;20.80;100.00;99863.56;179923;1260;45918;-59
2023/06/21 02:06:39;;;;;;;25.90;20.90;;;;;;;20.83;100.00;99860.10;180407;1260;45917;-60
2023/06/21 02:10:46;;;;;;;23.30;20.70;;;;;;;20.87;100.00;99866.55;180297;1260;58738;-59
2023/06/21 02:14:50;;;;;;;29.30;18.90;;;;;;;20.91;100.00;99868.47;180310;1260;45985;-58
2023/06/21 02:19:00;;;;;;;26.80;18.90;;;;;;;20.98;100.00;99859.98;180358;1260;43504;-62
2023/06/21 02:23:05;;;;;;;23.80;18.20;;;;;;;21.03;100.00;99860.38;180508;1260;45931;-59
2023/06/21 02:27:08;;;;;;;21.30;17.80;;;;;;;21.09;100.00;99866.42;180400;1260;46110;-59
2023/06/21 02:31:11;;;;;;;18.50;16.00;;;;;;;21.13;100.00;99867.73;180353;1260;59702;-58
2023/06/21 02:35:14;;;;;;;18.70;15.80;;;;;;;21.17;100.00;99868.09;180346;1260;45371;-62
2023/06/21 02:39:21;;;;;;;17.90;16.00;;;;;;;21.22;100.00;99869.27;180311;1261;45128;-60
2023/06/21 02:43:24;;;;;;;19.40;14.30;;;;;;;21.20;100.00;99867.85;180051;1260;43881;-61
2023/06/21 02:47:27;;;;;;;16.90;14.40;;;;;;;21.17;100.00;99861.22;180316;1260;43594;-59
2023/06/21 02:51:31;;;;;;;19.60;14.20;;;;;;;21.11;100.00;99864.67;180245;1260;58868;-59
2023/06/21 02:55:34;;;;;;;17.10;14.30;;;;;;;21.09;100.00;99870.63;180524;1259;44604;-60
2023/06/21 02:59:37;;;;;;;19.50;14.70;;;;;;;21.08;100.00;99873.08;180696;1260;43520;-64
2023/06/21 03:03:43;;;;;;;14.80;12.80;;;;;;;21.09;100.00;99877.41;180297;1260;43548;-59
2023/06/21 03:07:47;;;;;;;19.40;15.10;;;;;;;21.18;100.00;99887.27;180264;1260;43746;-60
2023/06/21 03:11:51;;;;;;;15.10;12.40;;;;;;;21.25;100.00;99886.88;180312;1260;59497;-60
2023/06/21 03:15:54;;;;;;;21.70;15.60;;;;;;;21.30;100.00;99892.20;180411;1260;45060;-61
2023/06/21 03:19:57;;;;;;;19.50;15.90;;;;;;;21.32;100.00;99888.92;180400;1260;43900;-61
2023/06/21 03:24:03;;;;;;;15.20;12.50;;;;;;;21.31;100.00;99883.93;180365;1263;46068;-61
2023/06/21 03:28:32;;;;;;;18.00;13.50;;;;;;;21.34;100.00;99882.65;180395;1260;43649;-58
2023/06/21 03:32:35;;;;;;;20.50;14.70;;;;;;;21.37;100.00;99884.39;179994;1260;58401;-58
2023/06/21 03:36:38;;;;;;;21.90;14.00;;;;;;;21.38;100.00;99878.61;180029;1260;43595;-63
2023/06/21 03:40:42;;;;;;;19.50;13.90;;;;;;;21.40;100.00;99880.48;180172;1260;44679;-60
2023/06/21 03:49:43;;;;;;;15.10;12.50;;;;;;;21.36;100.00;99878.31;180247;1260;45997;-59
2023/06/21 03:53:46;;;;;;;17.40;14.10;;;;;;;21.35;100.00;99878.31;180230;1260;58434;-58
2023/06/21 03:58:46;;;;;;;18.30;12.60;;;;;;;21.38;100.00;99876.64;180201;1260;43786;-60
2023/06/21 04:02:49;;;;;;;13.80;12.30;;;;;;;21.43;100.00;99873.37;180332;1260;45892;-60
2023/06/21 04:06:53;;;;;;;21.10;13.60;;;;;;;21.48;100.00;99867.46;180181;1260;43941;-59
2023/06/21 04:10:56;;;;;;;20.20;15.00;;;;;;;21.48;100.00;99866.08;180295;1260;43950;-61
2023/06/21 04:15:00;;;;;;;15.30;13.70;;;;;;;21.55;100.00;99875.27;180595;1260;58965;-61
2023/06/21 04:19:05;;;;;;;;;;;;;;;21.63;100.00;99885.20;180809;1260;43538;-61
2023/06/21 04:23:12;;;;;;;15.80;13.90;;;;;;;21.75;100.00;99885.75;180769;1260;45742;-64
2023/06/21 04:27:16;;;;;;;22.30;16.30;;;;;;;21.91;100.00;99899.85;180680;1260;43538;-60
2023/06/21 04:31:24;;;;;;;17.00;14.40;;;;;;;21.73;100.00;99999.95;180462;1260;43623;-61
2023/06/21 04:35:28;;;;;;;20.90;14.20;;;;;;;21.82;100.00;99977.58;180120;1260;59416;-59
2023/06/21 04:39:46;;;;;;;22.60;14.10;;;;;;;21.95;100.00;99978.58;180282;1260;44439;-60
2023/06/21 04:43:49;;;;;;;17.90;14.40;;;;;;;22.23;100.00;99982.10;180515;1260;43551;-60
2023/06/21 04:47:56;;;;;;;18.80;14.10;;;;;;;22.40;100.00;99999.84;180618;1259;43782;-61
2023/06/21 04:52:00;;;;;;;22.20;14.30;;;;;;;22.55;100.00;100009.02;180537;1260;44947;-61
2023/06/21 04:56:03;;;;;;;18.10;11.10;;;;;;;22.73;100.00;100012.17;180590;1260;58860;-61
2023/06/21 05:00:07;;;;;;;18.80;11.80;;;;;;;22.79;100.00;100015.77;180676;1260;45936;-59
2023/06/21 05:04:10;;;;;;;17.60;12.30;;;;;;;22.79;100.00;100014.08;180563;1260;43971;-61
2023/06/21 05:08:13;;;;;;;19.20;13.70;;;;;;;22.75;100.00;100009.36;180377;1260;44096;-61
2023/06/21 05:12:16;;;;;;;14.90;13.20;;;;;;;22.78;100.00;100011.19;180509;1260;43504;-61
2023/06/21 05:16:19;;;;;;;17.70;13.20;;;;;;;22.80;100.00;100002.68;180381;1260;59310;-63
2023/06/21 05:20:23;;;;;;;17.50;12.80;;;;;;;22.69;100.00;100002.98;180378;1260;43620;-59
2023/06/21 05:24:26;;;;;;;25.10;14.40;;;;;;;22.59;100.00;100009.29;180352;1260;44595;-59
2023/06/21 05:28:33;;;;;;;16.90;11.70;;;;;;;22.63;100.00;99996.35;180357;1260;43886;-60
2023/06/21 05:32:36;;;;;;;18.40;12.50;;;;;;;22.72;100.00;99986.23;180366;1259;45134;-60
2023/06/21 05:36:39;;;;;;;15.20;12.90;;;;;;;22.79;100.00;99974.27;180327;1259;58157;-63
2023/06/21 05:40:42;;;;;;;14.00;11.80;;;;;;;22.83;100.00;99964.63;180408;1260;43804;-62
2023/06/21 05:44:45;;;;;;;17.30;13.00;;;;;;;22.91;100.00;99966.44;180261;1260;44834;-59
2023/06/21 05:48:48;;;;;;;14.00;11.40;;;;;;;22.97;100.00;99960.68;180312;1259;44710;-61
2023/06/21 05:52:54;;;;;;;18.60;12.00;;;;;;;22.99;100.00;99958.34;180397;1260;43581;-62
2023/06/21 05:57:04;;;;;;;14.30;12.80;;;;;;;23.02;100.00;99963.66;180425;1260;57257;-60
2023/06/21 06:01:09;;;;;;;19.20;12.50;;;;;;;23.08;100.00;99947.86;180222;1260;45959;-60
2023/06/21 06:05:28;;;;;;;17.30;12.70;;;;;;;23.12;100.00;99948.14;180314;1260;43533;-61
2023/06/21 06:09:31;;;;;;;18.10;12.10;;;;;;;23.17;100.00;99959.41;180297;1259;44663;-60
2023/06/21 06:13:35;;;;;;;18.30;12.50;;;;;;;23.17;100.00;99968.42;180332;1261;46045;-62
2023/06/21 06:17:38;;;;;;;16.70;12.60;;;;;;;23.23;100.00;99968.17;180368;1260;58629;-63
2023/06/21 06:21:42;;;;;;;16.60;13.80;;;;;;;23.30;100.00;99969.39;180656;1260;43596;-60
2023/06/21 06:25:45;;;;;;;14.40;12.30;;;;;;;23.29;100.00;99982.59;180680;1260;43828;-61
2023/06/21 06:29:48;;;;;;;16.60;12.90;;;;;;;23.27;100.00;99989.55;180383;1259;43582;-60
2023/06/21 06:33:53;;;;;;;16.00;13.80;;;;;;;23.35;100.00;100000.01;180400;1260;44043;-60
2023/06/21 06:37:57;;;;;;;14.50;13.00;;;;;;;23.50;100.00;100014.52;180483;1260;58172;-60
2023/06/21 06:42:00;;;;;;;21.00;14.40;;;;;;;23.60;100.00;100020.64;180271;1260;46232;-63
2023/06/21 06:46:03;;;;;;;18.80;14.80;;;;;;;23.76;100.00;100014.70;180309;1260;45962;-60
2023/06/21 06:50:07;;;;;;;18.60;13.20;;;;;;;23.97;100.00;100017.84;180185;1260;43744;-60
2023/06/21 06:54:37;;;;;;;15.80;13.40;;;;;;;24.20;100.00;100012.95;180317;1260;43849;-61
2023/06/21 06:58:40;;;;;;;17.50;13.50;;;;;;;24.59;100.00;100010.57;180421;1261;58773;-61
2023/06/21 07:02:49;;;;;;;13.20;11.40;;;;;;;25.08;100.00;100006.06;180431;1259;46025;-64
2023/06/21 07:06:52;;;;;;;13.40;10.30;;;;;;;25.79;100.00;100009.70;180378;1261;43627;-61
2023/06/21 07:10:55;;;;;;;9.60;9.20;;;;;;;26.54;100.00;100007.78;180308;1260;43749;-60
2023/06/21 07:14:58;;;;;;;14.20;9.80;;;;;;;27.25;100.00;100010.34;180157;1260;45994;-62
2023/06/21 07:19:05;;;;;;;13.70;8.90;;;;;;;27.96;99.08;100009.27;180244;1260;58733;-60
2023/06/21 07:23:08;;;;;;;10.10;8.70;;;;;;;28.32;98.79;100015.47;180145;1260;45016;-60
2023/06/21 07:27:15;;;;;;;12.30;9.20;;;;;;;28.53;95.28;100013.58;180389;1260;43870;-61
2023/06/21 07:31:18;;;;;;;10.10;7.70;;;;;;;28.90;93.21;100016.37;180403;1260;43650;-61
2023/06/21 07:35:21;;;;;;;10.60;7.00;;;;;;;29.25;91.43;100017.98;180196;1261;45248;-64
2023/06/21 07:39:24;;;;;;;18.50;11.60;;;;;;;29.59;89.50;100021.37;180293;1261;58121;-61
2023/06/21 07:43:38;;;;;;;10.10;7.00;;;;;;;29.85;86.28;100017.38;180341;1260;45066;-60
2023/06/21 07:47:41;;;;;;;8.20;7.40;;;;;;;30.20;86.12;100025.23;180349;1260;43550;-60
2023/06/21 07:51:44;;;;;;;9.40;6.60;;;;;;;30.51;82.60;100032.68;180111;1260;43816;-60
2023/06/21 07:55:48;;;;;;;12.50;6.70;;;;;;;30.68;80.41;100029.56;180185;1260;46136;-60
2023/06/21 08:00:48;;;;;;;13.70;9.20;;;;;;;30.83;84.37;100035.35;180216;1259;59024;-61
2023/06/21 08:04:56;;;;;;;14.30;9.30;;;;;;;31.13;83.26;100043.25;180256;1260;45816;-63
2023/06/21 08:09:00;;;;;;;11.60;7.90;;;;;;;31.45;79.72;100046.38;180369;1260;43630;-60
2023/06/21 08:13:05;;;;;;;16.20;9.80;;;;;;;31.57;77.13;100052.57;180340;1260;44009;-62
2023/06/21 08:17:11;;;;;;;18.80;16.80;;;;;;;31.70;78.17;100058.20;180498;1260;44649;-63
2023/06/21 08:21:14;;;;;;;20.00;17.90;;;;;;;31.80;77.82;100061.41;180578;1259;58510;-61
2023/06/21 08:25:17;;;;;;;11.40;9.10;;;;;;;31.95;77.19;100061.98;180915;1260;43621;-61
2023/06/21 08:29:47;;;;;;;12.90;8.10;;;;;;;32.04;77.50;100066.48;180877;1260;43617;-60
2023/06/21 08:33:51;;;;;;;21.00;17.70;;;;;;;32.11;75.88;100068.02;180576;1260;43693;-59
2023/06/21 08:38:48;;;;;;;10.10;9.00;;;;;;;32.18;76.37;100072.75;180529;1260;44642;-59
2023/06/21 08:42:54;;;;;;;35.70;8.70;;;;;;;32.02;75.48;100071.88;180428;1259;58899;-59
2023/06/21 08:47:04;;;;;;;19.30;15.40;;;;;;;31.77;76.78;100075.92;180368;1260;43585;-59
2023/06/21 08:51:07;;;;;;;15.00;10.80;;;;;;;31.62;77.37;100081.27;180219;1261;45003;-60
2023/06/21 08:55:12;;;;;;;12.80;10.00;;;;;;;31.57;77.82;100092.27;180386;1260;46352;-60
2023/06/21 08:59:23;;;;;;;11.30;9.50;;;;;;;31.66;76.13;100093.42;180461;1260;43799;-59
2023/06/21 09:03:57;;;;;;;13.50;10.30;;;;;;;31.76;75.65;100098.80;180395;1260;58713;-59
2023/06/21 09:08:02;;;;;;;21.70;10.80;;;;;;;31.97;74.62;100095.52;180448;1260;43627;-60
2023/06/21 09:12:18;;;;;;;14.00;10.30;;;;;;;32.10;74.57;100093.45;180351;1259;45000;-64
2023/06/21 09:16:25;;;;;;;13.50;10.70;;;;;;;32.20;72.33;100100.42;180254;1260;46031;-62
2023/06/21 09:20:29;;;;;;;10.20;9.10;;;;;;;32.33;72.52;100104.41;180305;1261;44535;-63
2023/06/21 09:24:34;;;;;;;12.40;10.20;;;;;;;32.43;71.70;100104.52;180430;1260;58660;-63
2023/06/21 09:28:39;;;;;;;15.00;9.30;;;;;;;32.36;71.23;100105.66;180517;1262;43681;-63
2023/06/21 09:32:42;;;;;;;14.90;9.10;;;;;;;32.31;69.32;100104.67;180849;1261;43687;-64
2023/06/21 09:36:45;;;;;;;11.10;9.30;;;;;;;32.45;71.91;100104.73;180998;1260;43552;-65
2023/06/21 09:40:49;;;;;;;13.30;10.50;;;;;;;32.59;73.26;100098.33;180993;1258;45896;-64
2023/06/21 09:44:54;;;;;;;15.00;10.80;;;;;;;32.73;72.91;100097.58;180678;1259;58382;-63
2023/06/21 09:49:08;;;;;;;10.40;9.00;;;;;;;32.83;71.08;100100.24;180672;1259;43773;-63
2023/06/21 09:53:25;;;;;;;29.90;11.60;;;;;;;32.78;71.13;100093.77;180639;1256;45953;-64
2023/06/21 09:57:31;;;;;;;11.80;10.60;;;;;;;32.51;73.08;100087.60;180743;1256;43556;-64
2023/06/21 10:01:50;;;;;;;16.00;14.30;;;;;;;32.38;71.34;100090.04;180708;1256;43977;-63
2023/06/21 10:05:59;;;;;;;13.20;9.40;;;;;;;32.17;70.02;100091.41;180720;1258;59947;-63
2023/06/21 10:10:07;;;;;;;9.20;8.30;;;;;;;32.06;72.59;100087.12;180590;1258;43537;-63
2023/06/21 10:14:21;;;;;;;10.10;9.10;;;;;;;32.10;68.91;100087.95;180653;1258;43630;-64
2023/06/21 10:18:25;;;;;;;11.50;9.70;;;;;;;32.11;71.25;100083.82;180672;1259;43568;-63
2023/06/21 10:22:37;;;;;;;11.30;9.80;;;;;;;32.17;72.77;100083.54;180644;1259;43597;-64
2023/06/21 10:26:44;;;;;;;14.20;9.30;;;;;;;32.40;71.03;100073.41;180553;1256;57918;-65
2023/06/21 10:31:54;;;;;;;9.90;8.40;;;;;;;32.58;70.54;100068.38;180670;1258;43756;-65
2023/06/21 10:36:02;;;;;;;19.60;11.50;;;;;;;32.03;64.48;100070.66;180639;1259;46209;-64
2023/06/21 10:40:21;;;;;;;7.80;7.10;;;;;;;31.97;65.85;100067.20;180581;1256;43692;-64
2023/06/21 10:44:35;;;;;;;9.80;8.80;;;;;;;32.05;67.32;100065.94;180401;1258;45027;-65
2023/06/21 10:48:39;;;;;;;8.90;8.10;;;;;;;32.17;68.69;100063.84;180677;1259;58386;-65
2023/06/21 10:52:54;;;;;;;9.60;8.20;;;;;;;32.31;67.36;100053.05;180685;1259;46003;-66
2023/06/21 10:56:57;;;;;;;11.20;7.00;;;;;;;32.27;65.51;100060.14;180383;1259;45998;-64
2023/06/21 11:01:04;;;;;;;6.80;6.20;;;;;;;32.08;63.05;100051.86;180277;1256;44818;-66
2023/06/21 11:05:15;;;;;;;7.10;6.30;;;;;;;32.10;62.95;100060.16;180600;1256;43782;-65
2023/06/21 11:09:19;;;;;;;8.30;7.00;;;;;;;32.13;61.64;100059.72;180900;1259;58579;-66
2023/06/21 11:13:40;;;;;;;7.90;7.10;;;;;;;32.21;64.35;100066.74;180897;1256;43772;-64
2023/06/21 11:17:43;;;;;;;9.10;8.20;;;;;;;32.13;63.44;100072.70;180286;1259;43926;-66
2023/06/21 11:21:51;;;;;;;6.60;5.90;;;;;;;32.02;64.49;100074.58;180274;1258;43773;-64
2023/06/21 11:26:14;;;;;;;7.70;4.90;;;;;;;31.69;62.51;100073.04;180363;1256;43638;-66
2023/06/21 11:30:17;;;;;;;5.10;4.60;;;;;;;31.63;63.50;100069.35;180259;1259;57995;-65
2023/06/21 11:34:26;;;;;;;66.50;14.20;;;;;;;31.73;63.47;100069.59;180329;1259;43608;-64
2023/06/21 11:38:32;;;;;;;11.40;4.30;;;;;;;32.02;64.09;100065.11;180354;1259;46037;-64
2023/06/21 11:42:43;;;;;;;20.00;14.50;;;;;;;31.99;58.58;100068.68;180234;1258;43829;-63
2023/06/21 11:46:49;;;;;;;5.00;4.50;;;;;;;32.11;57.45;100067.27;180255;1259;44002;-64
2023/06/21 11:55:52;;;;;;;6.20;3.70;;;;;;;32.10;56.51;100068.36;179773;1264;46142;-64
2023/06/21 11:59:56;;;;;;;6.80;3.70;;;;;;;32.05;56.03;100068.97;179737;1268;44095;-64
2023/06/21 12:04:01;;;;;;;11.10;4.80;;;;;;;32.09;57.70;100063.73;179683;1266;44631;-64
2023/06/21 12:08:04;;;;;;;7.90;4.90;;;;;;;32.22;57.32;100061.14;179671;1264;43738;-64
2023/06/21 12:12:10;;;;;;;5.00;3.90;;;;;;;32.40;58.03;100063.75;179679;1264;59063;-64
2023/06/21 12:16:13;;;;;;;14.10;4.10;;;;;;;32.57;57.89;100061.55;179789;1266;44739;-64
2023/06/21 12:20:16;;;;;;;5.10;4.00;;;;;;;32.64;56.47;100065.61;179753;1264;44957;-66
2023/06/21 12:24:29;;;;;;;5.30;3.60;;;;;;;32.61;54.94;100064.41;179636;1268;46779;-67
2023/06/21 12:28:34;;;;;;;4.10;3.70;;;;;;;32.66;56.58;100061.86;179715;1264;44891;-65
2023/06/21 12:32:37;;;;;;;6.50;4.90;;;;;;;32.75;57.40;100065.02;179854;1259;58493;-65
2023/06/21 12:36:55;;;;;;;4.90;4.40;;;;;;;32.92;57.71;100067.59;180169;1260;45891;-64
2023/06/21 12:41:05;;;;;;;10.20;4.50;;;;;;;32.95;56.99;100062.17;180392;1259;43673;-65
2023/06/21 12:45:09;;;;;;;7.30;6.60;;;;;;;32.78;56.56;100067.44;180283;1259;44354;-64
2023/06/21 12:49:16;;;;;;;;;;;;;;;32.76;56.05;100074.11;180257;1259;43799;-64
2023/06/21 12:53:25;;;;;;;5.10;4.00;;;;;;;32.84;56.65;100077.73;180228;1261;59789;-64
2023/06/21 12:57:29;;;;;;;7.80;4.40;;;;;;;32.92;55.89;100073.75;179969;1259;45953;-64
2023/06/21 13:01:34;;;;;;;;;;;;;;;32.98;58.41;100078.14;180356;1259;43528;-64
2023/06/21 13:05:37;;;;;;;;;;;;;;;33.02;57.34;100083.75;180370;1259;45869;-65
2023/06/21 13:09:42;;;;;;;5.40;4.30;;;;;;;33.22;57.70;100089.55;180367;1261;43377;-64
2023/06/21 13:13:50;;;;;;;13.10;5.60;;;;;;;33.22;56.98;100089.79;180272;1260;58308;-64
2023/06/21 13:17:57;;;;;;;4.50;4.10;;;;;;;33.15;55.90;100082.91;180189;1259;46127;-64
2023/06/21 13:22:00;;;;;;;6.30;5.70;;;;;;;33.10;56.10;100072.70;180352;1259;45109;-65
2023/06/21 13:26:03;;;;;;;5.50;4.60;;;;;;;33.18;55.87;100063.17;180109;1260;45968;-64
2023/06/21 13:30:07;;;;;;;35.20;8.60;;;;;;;33.04;56.23;100054.48;180150;1260;45974;-63
2023/06/21 13:34:10;;;;;;;8.60;4.30;;;;;;;32.68;58.17;100055.09;180201;1258;57884;-63
2023/06/21 13:38:15;;;;;;;5.30;4.30;;;;;;;32.46;57.97;100055.30;180104;1259;177628;-63
2023/06/21 13:42:19;;;;;;;5.30;4.80;;;;;;;32.28;59.88;100062.52;180218;1259;45953;-64
2023/06/21 13:46:24;;;;;;;5.30;4.10;;;;;;;32.14;58.67;100057.85;180300;1259;43780;-63
2023/06/21 13:50:27;;;;;;;6.40;4.50;;;;;;;32.09;57.08;100057.02;180411;1260;43783;-64
2023/06/21 13:54:31;;;;;;;8.20;4.30;;;;;;;32.06;57.21;100059.61;180269;1259;58955;-63
2023/06/21 13:58:36;;;;;;;4.10;3.50;;;;;;;32.00;57.38;100057.19;180385;1259;46130;-63
2023/06/21 14:02:40;;;;;;;5.20;4.00;;;;;;;31.95;58.03;100054.43;180247;1259;44504;-63
2023/06/21 14:06:46;;;;;;;4.90;3.90;;;;;;;32.19;59.28;100058.34;180459;1259;43972;-64
2023/06/21 14:10:50;;;;;;;5.10;3.80;;;;;;;32.73;59.56;100057.77;180345;1259;45986;-63
2023/06/21 14:14:54;;;;;;;4.00;3.50;;;;;;;33.02;55.57;100058.78;180271;1259;58406;-64
2023/06/21 14:18:58;;;;;;;7.90;4.30;;;;;;;33.19;55.33;100059.20;180402;1258;45853;-64
2023/06/21 14:23:03;;;;;;;4.60;3.70;;;;;;;33.13;54.79;100057.73;180483;1259;46204;-62
2023/06/21 14:27:06;;;;;;;6.40;5.20;;;;;;;33.30;55.23;100049.83;180664;1259;43822;-61
2023/06/21 14:31:11;;;;;;;5.40;4.30;;;;;;;33.42;54.71;100045.58;180720;1259;43538;-64
2023/06/21 14:35:19;;;;;;;;;;;;;;;33.38;54.80;100046.86;180634;1259;58960;-62
2023/06/21 14:39:23;;;;;;;7.80;4.30;;;;;;;33.33;54.94;100055.26;180605;1259;43756;-61
2023/06/21 14:43:27;;;;;;;6.40;4.80;;;;;;;33.47;56.05;100056.85;180667;1261;43607;-64
2023/06/21 14:47:30;;;;;;;6.10;5.00;;;;;;;33.65;57.09;100055.48;180584;1257;45897;-64
2023/06/21 14:51:33;;;;;;;7.40;5.00;;;;;;;33.75;55.44;100047.79;180669;1257;43522;-65
2023/06/21 14:55:40;;;;;;;6.50;5.00;;;;;;;33.84;54.73;100049.98;180712;1260;58183;-63
2023/06/21 14:59:45;;;;;;;8.00;4.00;;;;;;;33.94;54.97;100045.00;180672;1257;43765;-62
2023/06/21 15:04:14;;;;;;;8.20;4.80;;;;;;;34.01;54.34;100045.13;180745;1258;44903;-60
2023/06/21 15:08:18;;;;;;;5.70;4.70;;;;;;;33.96;54.17;100043.49;180622;1262;44722;-61
2023/06/21 15:12:23;;;;;;;6.20;4.50;;;;;;;33.94;54.22;100045.39;180775;1256;43900;-61
2023/06/21 15:16:28;;;;;;;7.90;4.50;;;;;;;33.81;55.44;100053.05;180754;1259;58378;-60
2023/06/21 15:20:33;;;;;;;8.10;5.20;;;;;;;33.79;54.87;100057.30;180715;1256;43671;-60
2023/06/21 15:24:40;;;;;;;5.10;4.50;;;;;;;33.75;55.24;100065.45;180547;1257;44755;-62
2023/06/21 15:28:42;;;;;;;8.20;4.70;;;;;;;33.68;55.42;100072.66;180657;1257;46122;-61
2023/06/21 15:32:52;;;;;;;5.80;4.90;;;;;;;33.66;56.88;100073.77;180656;1258;43511;-61
2023/06/21 15:36:55;;;;;;;7.00;4.80;;;;;;;33.60;55.69;100078.73;180667;1259;60823;-60
2023/06/21 15:40:58;;;;;;;7.50;4.40;;;;;;;33.47;55.39;100079.64;180579;1258;46066;-64
2023/06/21 15:45:02;;;;;;;5.00;4.40;;;;;;;33.33;56.10;100080.79;180680;1259;45914;-60
2023/06/21 15:49:06;;;;;;;4.80;4.00;;;;;;;33.18;56.47;100084.10;180658;1259;43922;-59
2023/06/21 15:53:11;;;;;;;5.30;4.80;;;;;;;33.13;56.31;100085.62;180555;1260;44604;-64
2023/06/21 15:57:17;;;;;;;4.60;4.20;;;;;;;33.12;55.96;100088.45;180502;1262;58933;-59
2023/06/21 16:01:47;;;;;;;9.10;5.20;;;;;;;33.11;56.12;100092.13;180521;1262;45903;-59
2023/06/21 16:05:52;;;;;;;6.10;4.80;;;;;;;33.12;56.82;100096.02;180492;1257;45979;-62
2023/06/21 16:09:56;;;;;;;6.00;5.40;;;;;;;33.09;56.70;100092.25;180672;1259;44180;-59
2023/06/21 16:14:00;;;;;;;5.40;4.90;;;;;;;33.10;57.98;100095.38;180480;1260;46087;-61
2023/06/21 16:18:03;;;;;;;6.20;4.40;;;;;;;33.01;57.97;100090.04;180612;1259;58234;-59
2023/06/21 16:22:31;;;;;;;7.10;4.60;;;;;;;32.86;58.51;100087.64;180594;1260;43769;-60
2023/06/21 16:26:35;;;;;;;14.20;6.00;;;;;;;32.72;59.04;100086.63;180654;1257;43539;-59
2023/06/21 16:30:38;;;;;;;6.60;5.20;;;;;;;32.58;59.04;100080.98;180594;1259;45913;-63
2023/06/21 16:34:45;;;;;;;8.50;5.60;;;;;;;32.42;60.06;100073.96;180577;1257;43694;-62
2023/06/21 16:38:51;;;;;;;6.80;5.60;;;;;;;32.26;60.86;100076.83;180397;1260;58590;-62
2023/06/21 16:42:54;;;;;;;6.90;5.30;;;;;;;32.07;62.23;100073.86;180257;1262;44940;-62
2023/06/21 16:47:02;;;;;;;6.40;5.10;;;;;;;31.90;61.80;100078.80;180361;1259;44369;-63
2023/06/21 16:51:06;;;;;;;6.60;5.90;;;;;;;31.76;63.53;100085.86;180423;1261;44608;-60
2023/06/21 16:55:14;;;;;;;6.80;5.80;;;;;;;31.65;63.45;100088.65;180420;1263;43881;-59
2023/06/21 16:59:19;;;;;;;5.10;4.60;;;;;;;31.48;63.07;100088.23;180482;1262;58461;-61
2023/06/21 17:03:23;;;;;;;6.70;5.70;;;;;;;31.32;64.45;100094.33;180361;1260;43781;-63
2023/06/21 17:07:29;;;;;;;7.00;5.10;;;;;;;31.16;65.02;100094.58;180405;1259;43599;-63
2023/06/21 17:11:32;;;;;;;6.50;5.90;;;;;;;31.00;66.05;100096.88;180410;1259;45990;-60
2023/06/21 17:15:35;;;;;;;8.60;5.30;;;;;;;30.82;66.51;100098.04;180304;1260;45965;-60
2023/06/21 17:19:40;;;;;;;60.70;16.10;;;;;;;30.67;67.74;100097.17;180488;1261;57503;-62
2023/06/21 17:23:46;;;;;;;10.40;5.30;;;;;;;30.50;69.07;100093.70;180379;1259;44855;-61
2023/06/21 17:27:49;;;;;;;7.10;5.90;;;;;;;30.29;70.06;100098.16;180417;1260;43892;-60
2023/06/21 17:31:52;;;;;;;6.40;5.60;;;;;;;30.08;70.71;100103.52;180371;1259;43550;-59
2023/06/21 17:35:55;;;;;;;13.50;6.80;;;;;;;29.85;71.57;100102.95;180368;1258;45879;-62
2023/06/21 17:40:00;;;;;;;8.70;7.00;;;;;;;29.67;73.40;100102.72;180608;1257;58483;-61
2023/06/21 17:44:03;;;;;;;6.50;6.00;;;;;;;29.50;75.30;100107.02;180503;1260;43710;-59
2023/06/21 17:48:06;;;;;;;8.30;5.30;;;;;;;29.37;76.54;100106.70;180410;1260;46130;-60
2023/06/21 17:52:12;;;;;;;11.70;7.90;;;;;;;29.26;78.26;100107.06;180302;1258;45135;-60
2023/06/21 17:56:16;;;;;;;8.30;6.60;;;;;;;29.06;80.83;100111.63;180356;1263;43542;-61
2023/06/21 18:00:20;;;;;;;8.50;7.10;;;;;;;28.91;80.84;100115.44;180431;1261;58605;-62
2023/06/21 18:04:26;;;;;;;7.60;6.60;;;;;;;28.75;81.73;100114.63;180369;1257;44830;-59
2023/06/21 18:08:29;;;;;;;8.80;7.90;;;;;;;28.56;81.43;100112.05;180515;1259;46108;-59
2023/06/21 18:12:33;;;;;;;7.50;6.80;;;;;;;28.31;81.38;100113.13;180515;1260;45212;-59
2023/06/21 18:16:40;;;;;;;11.80;6.70;;;;;;;28.28;82.67;100122.65;180538;1258;45903;-58
2023/06/21 18:20:43;;;;;;;9.60;6.80;;;;;;;28.30;84.76;100123.45;180476;1260;57570;-62
2023/06/21 18:24:46;;;;;;;27.80;10.00;;;;;;;28.35;85.26;100130.38;180442;1258;43592;-59
2023/06/21 18:28:49;;;;;;;18.00;8.40;;;;;;;28.39;84.45;100138.22;180532;1260;46063;-63
2023/06/21 18:32:56;;;;;;;8.70;6.20;;;;;;;28.36;83.91;100139.70;180463;1258;43688;-59
2023/06/21 18:36:59;;;;;;;16.50;7.10;;;;;;;28.25;84.14;100145.91;180602;1257;43701;-65
2023/06/21 18:41:02;;;;;;;8.60;6.70;;;;;;;28.16;84.45;100151.27;180527;1259;58912;-63
2023/06/21 18:45:06;;;;;;;6.70;5.40;;;;;;;28.03;84.38;100162.17;180411;1259;44807;-62
2023/06/21 18:49:10;;;;;;;8.80;7.00;;;;;;;27.91;84.93;100172.83;180482;1259;45905;-62
2023/06/21 18:53:13;;;;;;;34.10;13.50;;;;;;;27.79;86.17;100181.63;180190;1259;45542;-62
2023/06/21 18:57:16;;;;;;;8.10;7.30;;;;;;;27.58;87.29;100188.17;180286;1259;45993;-62